sensor_id;sensor_type;location;lat;lon;timestamp;P1;durP1;ratioP1;P2;durP2;ratioP2
5465;SDS011;2755;50.728;7.108;2022-08-02T00:01:39;2.37;;;1.90;;
5465;SDS011;2755;50.728;7.108;2022-08-02T00:04:05;5.87;;;1.90;;
5465;SDS011;2755;50.728;7.108;2022-08-02T00:06:31;6.33;;;1.90;;
5465;SDS011;2755;50.728;7.108;2022-08-02T00:08:57;3.07;;;2.23;;
5465;SDS011;2755;50.728;7.108;2022-08-02T00:11:23;2.80;;;2.13;;
5465;SDS011;2755;50.728;7.108;2022-08-02T00:13:49;3.00;;;1.70;;
5465;SDS011;2755;50.728;7.108;2022-08-02T00:16:15;5.90;;;2.33;;
5465;SDS011;2755;50.728;7.108;2022-08-02T00:18:40;2.70;;;2.10;;
5465;SDS011;2755;50.728;7.108;2022-08-02T00:21:06;3.80;;;2.30;;
5465;SDS011;2755;50.728;7.108;2022-08-02T00:23:32;4.43;;;1.83;;
5465;SDS011;2755;50.728;7.108;2022-08-02T00:25:57;5.20;;;2.50;;
5465;SDS011;2755;50.728;7.108;2022-08-02T00:28:24;3.13;;;1.60;;
5465;SDS011;2755;50.728;7.108;2022-08-02T00:30:50;3.43;;;2.20;;
5465;SDS011;2755;50.728;7.108;2022-08-02T00:33:16;3.20;;;2.43;;
5465;SDS011;2755;50.728;7.108;2022-08-02T00:35:41;4.60;;;2.60;;
5465;SDS011;2755;50.728;7.108;2022-08-02T00:38:07;3.30;;;1.97;;
5465;SDS011;2755;50.728;7.108;2022-08-02T00:40:33;2.33;;;1.70;;
5465;SDS011;2755;50.728;7.108;2022-08-02T00:43:02;2.77;;;2.20;;
5465;SDS011;2755;50.728;7.108;2022-08-02T00:45:33;2.67;;;2.00;;
5465;SDS011;2755;50.728;7.108;2022-08-02T00:48:00;2.77;;;1.83;;
5465;SDS011;2755;50.728;7.108;2022-08-02T00:50:26;2.43;;;2.07;;
5465;SDS011;2755;50.728;7.108;2022-08-02T00:52:52;2.20;;;1.83;;
5465;SDS011;2755;50.728;7.108;2022-08-02T00:55:18;2.67;;;2.13;;
5465;SDS011;2755;50.728;7.108;2022-08-02T00:57:44;2.57;;;2.03;;
5465;SDS011;2755;50.728;7.108;2022-08-02T01:00:09;3.20;;;2.20;;
5465;SDS011;2755;50.728;7.108;2022-08-02T01:02:35;2.47;;;2.27;;
5465;SDS011;2755;50.728;7.108;2022-08-02T01:05:01;3.70;;;2.10;;
5465;SDS011;2755;50.728;7.108;2022-08-02T01:07:27;2.23;;;2.03;;
5465;SDS011;2755;50.728;7.108;2022-08-02T01:09:52;4.67;;;2.37;;
5465;SDS011;2755;50.728;7.108;2022-08-02T01:12:18;2.70;;;2.47;;
5465;SDS011;2755;50.728;7.108;2022-08-02T01:14:48;3.50;;;2.37;;
5465;SDS011;2755;50.728;7.108;2022-08-02T01:31:03;3.77;;;2.60;;
5465;SDS011;2755;50.728;7.108;2022-08-02T01:33:41;3.27;;;2.60;;
5465;SDS011;2755;50.728;7.108;2022-08-02T01:36:09;3.30;;;2.60;;
5465;SDS011;2755;50.728;7.108;2022-08-02T01:38:38;6.17;;;2.80;;
5465;SDS011;2755;50.728;7.108;2022-08-02T01:41:13;3.63;;;2.70;;
5465;SDS011;2755;50.728;7.108;2022-08-02T01:43:42;4.00;;;2.67;;
5465;SDS011;2755;50.728;7.108;2022-08-02T01:46:09;3.93;;;3.13;;
5465;SDS011;2755;50.728;7.108;2022-08-02T01:48:36;4.17;;;3.07;;
5465;SDS011;2755;50.728;7.108;2022-08-02T01:51:05;2.93;;;2.27;;
5465;SDS011;2755;50.728;7.108;2022-08-02T01:53:32;4.27;;;2.97;;
5465;SDS011;2755;50.728;7.108;2022-08-02T01:55:59;5.80;;;2.70;;
5465;SDS011;2755;50.728;7.108;2022-08-02T01:58:28;3.00;;;2.70;;
5465;SDS011;2755;50.728;7.108;2022-08-02T02:00:58;3.17;;;2.60;;
5465;SDS011;2755;50.728;7.108;2022-08-02T02:03:26;3.90;;;2.67;;
5465;SDS011;2755;50.728;7.108;2022-08-02T02:05:54;4.63;;;3.10;;
5465;SDS011;2755;50.728;7.108;2022-08-02T02:08:26;4.13;;;3.33;;
5465;SDS011;2755;50.728;7.108;2022-08-02T02:10:55;3.23;;;2.60;;
5465;SDS011;2755;50.728;7.108;2022-08-02T02:13:22;4.33;;;2.97;;
5465;SDS011;2755;50.728;7.108;2022-08-02T02:15:50;6.03;;;3.50;;
5465;SDS011;2755;50.728;7.108;2022-08-02T02:18:19;3.43;;;3.13;;
5465;SDS011;2755;50.728;7.108;2022-08-02T02:20:47;4.43;;;2.73;;
5465;SDS011;2755;50.728;7.108;2022-08-02T02:23:13;2.63;;;2.43;;
5465;SDS011;2755;50.728;7.108;2022-08-02T02:25:40;3.87;;;2.90;;
5465;SDS011;2755;50.728;7.108;2022-08-02T02:28:17;4.20;;;2.70;;
5465;SDS011;2755;50.728;7.108;2022-08-02T02:30:54;3.50;;;2.20;;
5465;SDS011;2755;50.728;7.108;2022-08-02T02:33:25;4.10;;;2.70;;
5465;SDS011;2755;50.728;7.108;2022-08-02T02:35:52;2.17;;;2.03;;
5465;SDS011;2755;50.728;7.108;2022-08-02T02:38:18;3.00;;;2.30;;
5465;SDS011;2755;50.728;7.108;2022-08-02T02:40:45;3.70;;;2.53;;
5465;SDS011;2755;50.728;7.108;2022-08-02T02:43:12;3.17;;;2.37;;
5465;SDS011;2755;50.728;7.108;2022-08-02T02:45:39;4.27;;;2.40;;
5465;SDS011;2755;50.728;7.108;2022-08-02T02:48:06;3.20;;;2.80;;
5465;SDS011;2755;50.728;7.108;2022-08-02T02:50:34;3.03;;;2.70;;
5465;SDS011;2755;50.728;7.108;2022-08-02T02:53:00;2.77;;;2.40;;
5465;SDS011;2755;50.728;7.108;2022-08-02T02:55:26;5.00;;;2.53;;
5465;SDS011;2755;50.728;7.108;2022-08-02T02:57:52;3.87;;;2.70;;
5465;SDS011;2755;50.728;7.108;2022-08-02T03:00:19;4.50;;;2.70;;
5465;SDS011;2755;50.728;7.108;2022-08-02T03:03:06;3.20;;;2.40;;
5465;SDS011;2755;50.728;7.108;2022-08-02T03:05:33;4.57;;;3.20;;
5465;SDS011;2755;50.728;7.108;2022-08-02T03:07:59;3.90;;;2.90;;
5465;SDS011;2755;50.728;7.108;2022-08-02T03:10:24;5.70;;;2.50;;
5465;SDS011;2755;50.728;7.108;2022-08-02T03:12:52;3.37;;;2.67;;
5465;SDS011;2755;50.728;7.108;2022-08-02T03:15:20;2.80;;;2.40;;
5465;SDS011;2755;50.728;7.108;2022-08-02T03:17:46;3.03;;;2.60;;
5465;SDS011;2755;50.728;7.108;2022-08-02T03:20:16;4.60;;;2.43;;
5465;SDS011;2755;50.728;7.108;2022-08-02T03:22:43;3.40;;;3.10;;
5465;SDS011;2755;50.728;7.108;2022-08-02T03:25:10;4.47;;;3.10;;
5465;SDS011;2755;50.728;7.108;2022-08-02T03:27:37;3.13;;;2.83;;
5465;SDS011;2755;50.728;7.108;2022-08-02T03:30:04;3.63;;;2.80;;
5465;SDS011;2755;50.728;7.108;2022-08-02T03:32:31;2.20;;;2.00;;
5465;SDS011;2755;50.728;7.108;2022-08-02T03:34:58;3.73;;;2.93;;
5465;SDS011;2755;50.728;7.108;2022-08-02T03:37:25;3.10;;;2.50;;
5465;SDS011;2755;50.728;7.108;2022-08-02T03:39:51;2.60;;;2.40;;
5465;SDS011;2755;50.728;7.108;2022-08-02T03:42:21;4.77;;;2.90;;
5465;SDS011;2755;50.728;7.108;2022-08-02T03:44:48;3.10;;;2.77;;
5465;SDS011;2755;50.728;7.108;2022-08-02T03:47:16;3.20;;;2.30;;
5465;SDS011;2755;50.728;7.108;2022-08-02T03:49:43;2.97;;;2.60;;
5465;SDS011;2755;50.728;7.108;2022-08-02T03:52:10;3.60;;;2.90;;
5465;SDS011;2755;50.728;7.108;2022-08-02T03:54:36;3.63;;;2.87;;
5465;SDS011;2755;50.728;7.108;2022-08-02T03:57:03;3.10;;;2.70;;
5465;SDS011;2755;50.728;7.108;2022-08-02T03:59:39;5.40;;;3.60;;
5465;SDS011;2755;50.728;7.108;2022-08-02T04:02:06;5.07;;;2.73;;
5465;SDS011;2755;50.728;7.108;2022-08-02T04:04:31;3.73;;;3.17;;
5465;SDS011;2755;50.728;7.108;2022-08-02T04:06:57;4.27;;;3.27;;
5465;SDS011;2755;50.728;7.108;2022-08-02T04:09:22;3.47;;;2.90;;
5465;SDS011;2755;50.728;7.108;2022-08-02T04:11:48;5.67;;;3.70;;
5465;SDS011;2755;50.728;7.108;2022-08-02T04:14:13;10.70;;;3.43;;
5465;SDS011;2755;50.728;7.108;2022-08-02T04:16:41;5.47;;;3.20;;
5465;SDS011;2755;50.728;7.108;2022-08-02T04:19:27;5.40;;;3.70;;
5465;SDS011;2755;50.728;7.108;2022-08-02T04:22:15;3.80;;;2.90;;
5465;SDS011;2755;50.728;7.108;2022-08-02T04:24:44;4.60;;;3.77;;
5465;SDS011;2755;50.728;7.108;2022-08-02T04:27:14;4.20;;;3.50;;
5465;SDS011;2755;50.728;7.108;2022-08-02T04:29:40;5.00;;;3.23;;
5465;SDS011;2755;50.728;7.108;2022-08-02T04:32:06;8.17;;;3.40;;
5465;SDS011;2755;50.728;7.108;2022-08-02T04:34:32;4.13;;;3.23;;
5465;SDS011;2755;50.728;7.108;2022-08-02T04:36:58;4.97;;;3.63;;
5465;SDS011;2755;50.728;7.108;2022-08-02T04:39:25;4.10;;;2.87;;
5465;SDS011;2755;50.728;7.108;2022-08-02T04:41:51;3.10;;;2.80;;
5465;SDS011;2755;50.728;7.108;2022-08-02T04:44:17;4.20;;;3.70;;
5465;SDS011;2755;50.728;7.108;2022-08-02T04:46:42;3.80;;;3.20;;
5465;SDS011;2755;50.728;7.108;2022-08-02T04:49:09;4.03;;;3.30;;
5465;SDS011;2755;50.728;7.108;2022-08-02T04:51:37;6.33;;;4.00;;
5465;SDS011;2755;50.728;7.108;2022-08-02T04:54:04;5.30;;;3.70;;
5465;SDS011;2755;50.728;7.108;2022-08-02T04:56:30;3.67;;;2.80;;
5465;SDS011;2755;50.728;7.108;2022-08-02T04:58:56;6.40;;;3.93;;
5465;SDS011;2755;50.728;7.108;2022-08-02T05:01:21;5.07;;;3.20;;
5465;SDS011;2755;50.728;7.108;2022-08-02T05:03:47;3.93;;;2.87;;
5465;SDS011;2755;50.728;7.108;2022-08-02T05:06:13;4.67;;;2.80;;
5465;SDS011;2755;50.728;7.108;2022-08-02T05:08:38;5.07;;;3.33;;
5465;SDS011;2755;50.728;7.108;2022-08-02T05:11:04;4.13;;;3.03;;
5465;SDS011;2755;50.728;7.108;2022-08-02T05:13:29;5.63;;;4.27;;
5465;SDS011;2755;50.728;7.108;2022-08-02T05:15:55;4.87;;;4.13;;
5465;SDS011;2755;50.728;7.108;2022-08-02T05:18:23;7.73;;;4.57;;
5465;SDS011;2755;50.728;7.108;2022-08-02T05:20:48;7.43;;;5.70;;
5465;SDS011;2755;50.728;7.108;2022-08-02T05:23:14;7.30;;;4.80;;
5465;SDS011;2755;50.728;7.108;2022-08-02T05:25:40;9.23;;;6.10;;
5465;SDS011;2755;50.728;7.108;2022-08-02T05:28:06;4.60;;;4.10;;
5465;SDS011;2755;50.728;7.108;2022-08-02T05:30:31;5.30;;;4.20;;
5465;SDS011;2755;50.728;7.108;2022-08-02T05:32:57;7.40;;;4.10;;
5465;SDS011;2755;50.728;7.108;2022-08-02T05:35:22;5.27;;;4.17;;
5465;SDS011;2755;50.728;7.108;2022-08-02T05:37:49;3.97;;;3.43;;
5465;SDS011;2755;50.728;7.108;2022-08-02T05:40:15;4.10;;;3.10;;
5465;SDS011;2755;50.728;7.108;2022-08-02T05:42:41;6.97;;;4.07;;
5465;SDS011;2755;50.728;7.108;2022-08-02T05:45:08;4.97;;;4.00;;
5465;SDS011;2755;50.728;7.108;2022-08-02T05:47:35;5.93;;;3.53;;
5465;SDS011;2755;50.728;7.108;2022-08-02T05:50:01;6.30;;;3.37;;
5465;SDS011;2755;50.728;7.108;2022-08-02T05:52:32;5.13;;;3.30;;
5465;SDS011;2755;50.728;7.108;2022-08-02T05:55:07;7.20;;;3.80;;
5465;SDS011;2755;50.728;7.108;2022-08-02T06:00:17;5.10;;;3.70;;
5465;SDS011;2755;50.728;7.108;2022-08-02T06:07:35;2.63;;;2.43;;
5465;SDS011;2755;50.728;7.108;2022-08-02T06:10:05;3.57;;;2.80;;
5465;SDS011;2755;50.728;7.108;2022-08-02T06:12:35;4.10;;;2.37;;
5465;SDS011;2755;50.728;7.108;2022-08-02T06:15:13;5.90;;;3.07;;
5465;SDS011;2755;50.728;7.108;2022-08-02T06:17:45;6.23;;;2.63;;
5465;SDS011;2755;50.728;7.108;2022-08-02T06:20:12;3.27;;;2.70;;
5465;SDS011;2755;50.728;7.108;2022-08-02T06:22:42;9.07;;;3.50;;
5465;SDS011;2755;50.728;7.108;2022-08-02T06:25:11;2.60;;;2.33;;
5465;SDS011;2755;50.728;7.108;2022-08-02T06:27:40;4.80;;;2.70;;
5465;SDS011;2755;50.728;7.108;2022-08-02T06:30:07;3.70;;;2.30;;
5465;SDS011;2755;50.728;7.108;2022-08-02T06:32:34;6.83;;;2.37;;
5465;SDS011;2755;50.728;7.108;2022-08-02T06:35:01;5.67;;;3.77;;
5465;SDS011;2755;50.728;7.108;2022-08-02T06:37:34;3.27;;;2.63;;
5465;SDS011;2755;50.728;7.108;2022-08-02T06:43:10;8.47;;;2.10;;
5465;SDS011;2755;50.728;7.108;2022-08-02T06:45:26;3.40;;;2.10;;
5465;SDS011;2755;50.728;7.108;2022-08-02T06:47:53;4.17;;;1.93;;
5465;SDS011;2755;50.728;7.108;2022-08-02T06:50:19;6.60;;;2.50;;
5465;SDS011;2755;50.728;7.108;2022-08-02T06:52:45;3.23;;;1.93;;
5465;SDS011;2755;50.728;7.108;2022-08-02T06:55:10;3.13;;;1.77;;
5465;SDS011;2755;50.728;7.108;2022-08-02T06:57:36;3.20;;;1.80;;
5465;SDS011;2755;50.728;7.108;2022-08-02T07:00:03;5.63;;;2.03;;
5465;SDS011;2755;50.728;7.108;2022-08-02T07:02:33;3.03;;;2.20;;
5465;SDS011;2755;50.728;7.108;2022-08-02T07:04:59;2.03;;;1.80;;
5465;SDS011;2755;50.728;7.108;2022-08-02T07:07:25;6.87;;;2.03;;
5465;SDS011;2755;50.728;7.108;2022-08-02T07:09:51;3.80;;;1.80;;
5465;SDS011;2755;50.728;7.108;2022-08-02T07:12:17;3.00;;;1.80;;
5465;SDS011;2755;50.728;7.108;2022-08-02T07:14:43;5.93;;;2.07;;
5465;SDS011;2755;50.728;7.108;2022-08-02T07:17:09;2.23;;;1.50;;
5465;SDS011;2755;50.728;7.108;2022-08-02T07:19:34;6.87;;;1.83;;
5465;SDS011;2755;50.728;7.108;2022-08-02T07:22:00;2.57;;;1.47;;
5465;SDS011;2755;50.728;7.108;2022-08-02T07:24:27;1.70;;;1.30;;
5465;SDS011;2755;50.728;7.108;2022-08-02T07:26:52;2.80;;;1.80;;
5465;SDS011;2755;50.728;7.108;2022-08-02T07:29:18;2.77;;;2.30;;
5465;SDS011;2755;50.728;7.108;2022-08-02T07:31:44;1.77;;;1.20;;
5465;SDS011;2755;50.728;7.108;2022-08-02T07:34:09;3.73;;;1.73;;
5465;SDS011;2755;50.728;7.108;2022-08-02T07:36:36;5.00;;;1.60;;
5465;SDS011;2755;50.728;7.108;2022-08-02T07:39:02;4.07;;;1.53;;
5465;SDS011;2755;50.728;7.108;2022-08-02T07:41:28;2.33;;;1.50;;
5465;SDS011;2755;50.728;7.108;2022-08-02T07:43:54;3.43;;;1.30;;
5465;SDS011;2755;50.728;7.108;2022-08-02T07:46:19;3.73;;;1.50;;
5465;SDS011;2755;50.728;7.108;2022-08-02T07:48:46;3.10;;;1.63;;
5465;SDS011;2755;50.728;7.108;2022-08-02T07:51:13;3.10;;;1.70;;
5465;SDS011;2755;50.728;7.108;2022-08-02T07:53:39;3.13;;;1.70;;
5465;SDS011;2755;50.728;7.108;2022-08-02T07:56:05;7.97;;;1.60;;
5465;SDS011;2755;50.728;7.108;2022-08-02T07:58:30;2.10;;;1.63;;
5465;SDS011;2755;50.728;7.108;2022-08-02T08:00:56;5.60;;;2.00;;
5465;SDS011;2755;50.728;7.108;2022-08-02T08:03:22;2.57;;;1.63;;
5465;SDS011;2755;50.728;7.108;2022-08-02T08:05:48;5.03;;;1.83;;
5465;SDS011;2755;50.728;7.108;2022-08-02T08:08:14;3.80;;;1.50;;
5465;SDS011;2755;50.728;7.108;2022-08-02T08:10:39;2.50;;;1.30;;
5465;SDS011;2755;50.728;7.108;2022-08-02T08:13:05;2.27;;;1.50;;
5465;SDS011;2755;50.728;7.108;2022-08-02T08:15:31;3.00;;;1.47;;
5465;SDS011;2755;50.728;7.108;2022-08-02T08:17:57;6.77;;;1.77;;
5465;SDS011;2755;50.728;7.108;2022-08-02T08:20:23;3.70;;;1.43;;
5465;SDS011;2755;50.728;7.108;2022-08-02T08:22:49;2.50;;;1.63;;
5465;SDS011;2755;50.728;7.108;2022-08-02T08:25:15;2.53;;;1.30;;
5465;SDS011;2755;50.728;7.108;2022-08-02T08:27:50;3.03;;;1.50;;
5465;SDS011;2755;50.728;7.108;2022-08-02T08:30:16;4.13;;;1.13;;
5465;SDS011;2755;50.728;7.108;2022-08-02T08:32:43;2.90;;;1.47;;
5465;SDS011;2755;50.728;7.108;2022-08-02T08:35:09;3.07;;;1.17;;
5465;SDS011;2755;50.728;7.108;2022-08-02T08:37:35;2.53;;;1.30;;
5465;SDS011;2755;50.728;7.108;2022-08-02T08:40:05;1.53;;;1.20;;
5465;SDS011;2755;50.728;7.108;2022-08-02T08:42:32;6.77;;;1.60;;
5465;SDS011;2755;50.728;7.108;2022-08-02T08:45:00;3.30;;;1.77;;
5465;SDS011;2755;50.728;7.108;2022-08-02T08:47:28;4.07;;;1.30;;
5465;SDS011;2755;50.728;7.108;2022-08-02T08:50:00;8.87;;;1.83;;
5465;SDS011;2755;50.728;7.108;2022-08-02T08:52:28;1.63;;;1.33;;
5465;SDS011;2755;50.728;7.108;2022-08-02T08:55:06;2.30;;;1.47;;
5465;SDS011;2755;50.728;7.108;2022-08-02T08:57:34;1.73;;;1.50;;
5465;SDS011;2755;50.728;7.108;2022-08-02T09:00:04;2.40;;;1.43;;
5465;SDS011;2755;50.728;7.108;2022-08-02T09:02:31;1.80;;;1.20;;
5465;SDS011;2755;50.728;7.108;2022-08-02T09:04:59;3.63;;;1.30;;
5465;SDS011;2755;50.728;7.108;2022-08-02T09:07:25;5.17;;;2.07;;
5465;SDS011;2755;50.728;7.108;2022-08-02T09:09:52;2.50;;;1.50;;
5465;SDS011;2755;50.728;7.108;2022-08-02T09:12:18;2.40;;;1.57;;
5465;SDS011;2755;50.728;7.108;2022-08-02T09:14:49;3.57;;;1.40;;
5465;SDS011;2755;50.728;7.108;2022-08-02T09:17:15;3.33;;;1.17;;
5465;SDS011;2755;50.728;7.108;2022-08-02T09:19:41;2.50;;;1.20;;
5465;SDS011;2755;50.728;7.108;2022-08-02T09:22:08;2.30;;;1.20;;
5465;SDS011;2755;50.728;7.108;2022-08-02T09:24:45;1.57;;;1.13;;
5465;SDS011;2755;50.728;7.108;2022-08-02T09:27:13;3.80;;;1.30;;
5465;SDS011;2755;50.728;7.108;2022-08-02T09:29:45;1.53;;;1.20;;
5465;SDS011;2755;50.728;7.108;2022-08-02T09:32:11;1.67;;;1.30;;
5465;SDS011;2755;50.728;7.108;2022-08-02T09:37:29;3.33;;;1.33;;
5465;SDS011;2755;50.728;7.108;2022-08-02T09:39:56;1.90;;;1.40;;
5465;SDS011;2755;50.728;7.108;2022-08-02T09:42:27;1.13;;;1.00;;
5465;SDS011;2755;50.728;7.108;2022-08-02T09:45:00;1.37;;;1.10;;
5465;SDS011;2755;50.728;7.108;2022-08-02T09:47:27;1.73;;;1.33;;
5465;SDS011;2755;50.728;7.108;2022-08-02T09:49:54;1.80;;;1.10;;
5465;SDS011;2755;50.728;7.108;2022-08-02T09:52:25;1.30;;;1.20;;
5465;SDS011;2755;50.728;7.108;2022-08-02T09:54:55;1.37;;;1.10;;
5465;SDS011;2755;50.728;7.108;2022-08-02T09:57:28;1.07;;;0.80;;
5465;SDS011;2755;50.728;7.108;2022-08-02T09:59:55;2.00;;;1.07;;
5465;SDS011;2755;50.728;7.108;2022-08-02T10:02:21;1.47;;;0.90;;
5465;SDS011;2755;50.728;7.108;2022-08-02T10:04:47;4.10;;;1.50;;
5465;SDS011;2755;50.728;7.108;2022-08-02T10:07:12;1.20;;;1.07;;
5465;SDS011;2755;50.728;7.108;2022-08-02T10:09:38;0.90;;;0.80;;
5465;SDS011;2755;50.728;7.108;2022-08-02T10:12:05;1.33;;;1.13;;
5465;SDS011;2755;50.728;7.108;2022-08-02T10:14:34;1.33;;;1.07;;
5465;SDS011;2755;50.728;7.108;2022-08-02T10:17:00;2.13;;;1.23;;
5465;SDS011;2755;50.728;7.108;2022-08-02T10:19:26;1.47;;;1.00;;
5465;SDS011;2755;50.728;7.108;2022-08-02T10:21:55;1.63;;;0.93;;
5465;SDS011;2755;50.728;7.108;2022-08-02T10:24:27;1.53;;;0.87;;
5465;SDS011;2755;50.728;7.108;2022-08-02T10:26:54;2.80;;;1.03;;
5465;SDS011;2755;50.728;7.108;2022-08-02T10:29:37;3.50;;;1.30;;
5465;SDS011;2755;50.728;7.108;2022-08-02T10:32:09;1.97;;;1.20;;
5465;SDS011;2755;50.728;7.108;2022-08-02T10:34:41;2.90;;;0.90;;
5465;SDS011;2755;50.728;7.108;2022-08-02T10:37:08;0.70;;;0.60;;
5465;SDS011;2755;50.728;7.108;2022-08-02T10:39:38;2.07;;;0.80;;
5465;SDS011;2755;50.728;7.108;2022-08-02T10:42:04;1.83;;;0.83;;
5465;SDS011;2755;50.728;7.108;2022-08-02T10:44:31;2.43;;;1.33;;
5465;SDS011;2755;50.728;7.108;2022-08-02T10:52:24;1.43;;;0.90;;
5465;SDS011;2755;50.728;7.108;2022-08-02T10:54:55;1.50;;;0.80;;
5465;SDS011;2755;50.728;7.108;2022-08-02T10:59:48;1.97;;;1.10;;
5465;SDS011;2755;50.728;7.108;2022-08-02T11:02:50;0.87;;;0.77;;
5465;SDS011;2755;50.728;7.108;2022-08-02T11:08:24;1.10;;;0.90;;
5465;SDS011;2755;50.728;7.108;2022-08-02T11:10:50;0.90;;;0.70;;
5465;SDS011;2755;50.728;7.108;2022-08-02T11:13:16;1.37;;;1.23;;
5465;SDS011;2755;50.728;7.108;2022-08-02T11:18:12;1.00;;;0.70;;
5465;SDS011;2755;50.728;7.108;2022-08-02T11:20:38;1.73;;;1.10;;
5465;SDS011;2755;50.728;7.108;2022-08-02T11:23:32;1.10;;;0.80;;
5465;SDS011;2755;50.728;7.108;2022-08-02T11:26:21;1.90;;;0.97;;
5465;SDS011;2755;50.728;7.108;2022-08-02T11:28:57;1.10;;;1.00;;
5465;SDS011;2755;50.728;7.108;2022-08-02T11:31:23;3.23;;;0.90;;
5465;SDS011;2755;50.728;7.108;2022-08-02T11:33:49;1.30;;;0.90;;
5465;SDS011;2755;50.728;7.108;2022-08-02T11:36:16;5.07;;;0.63;;
5465;SDS011;2755;50.728;7.108;2022-08-02T11:38:43;1.70;;;0.83;;
5465;SDS011;2755;50.728;7.108;2022-08-02T11:41:17;1.00;;;0.90;;
5465;SDS011;2755;50.728;7.108;2022-08-02T11:43:43;1.90;;;1.07;;
5465;SDS011;2755;50.728;7.108;2022-08-02T11:46:17;1.43;;;0.70;;
5465;SDS011;2755;50.728;7.108;2022-08-02T11:48:43;1.53;;;0.70;;
5465;SDS011;2755;50.728;7.108;2022-08-02T11:53:45;1.20;;;0.90;;
5465;SDS011;2755;50.728;7.108;2022-08-02T11:56:11;3.37;;;0.90;;
5465;SDS011;2755;50.728;7.108;2022-08-02T11:58:38;1.20;;;0.80;;
5465;SDS011;2755;50.728;7.108;2022-08-02T12:01:04;2.10;;;0.60;;
5465;SDS011;2755;50.728;7.108;2022-08-02T12:03:34;1.20;;;0.60;;
5465;SDS011;2755;50.728;7.108;2022-08-02T12:06:03;1.47;;;0.80;;
5465;SDS011;2755;50.728;7.108;2022-08-02T12:08:33;2.40;;;0.83;;
5465;SDS011;2755;50.728;7.108;2022-08-02T12:11:02;1.67;;;0.70;;
5465;SDS011;2755;50.728;7.108;2022-08-02T12:13:39;2.27;;;1.20;;
5465;SDS011;2755;50.728;7.108;2022-08-02T12:16:12;2.83;;;1.00;;
5465;SDS011;2755;50.728;7.108;2022-08-02T12:18:57;2.83;;;1.27;;
5465;SDS011;2755;50.728;7.108;2022-08-02T12:21:41;2.93;;;0.90;;
5465;SDS011;2755;50.728;7.108;2022-08-02T12:24:07;4.73;;;0.90;;
5465;SDS011;2755;50.728;7.108;2022-08-02T12:26:41;1.20;;;1.00;;
5465;SDS011;2755;50.728;7.108;2022-08-02T12:29:08;1.93;;;1.00;;
5465;SDS011;2755;50.728;7.108;2022-08-02T12:31:38;2.40;;;0.70;;
5465;SDS011;2755;50.728;7.108;2022-08-02T12:34:14;2.40;;;0.90;;
5465;SDS011;2755;50.728;7.108;2022-08-02T12:36:41;1.00;;;0.80;;
5465;SDS011;2755;50.728;7.108;2022-08-02T12:39:11;1.30;;;0.80;;
5465;SDS011;2755;50.728;7.108;2022-08-02T12:41:40;1.40;;;0.97;;
5465;SDS011;2755;50.728;7.108;2022-08-02T12:44:13;1.00;;;0.80;;
5465;SDS011;2755;50.728;7.108;2022-08-02T12:46:40;2.60;;;0.80;;
5465;SDS011;2755;50.728;7.108;2022-08-02T12:49:13;1.20;;;0.83;;
5465;SDS011;2755;50.728;7.108;2022-08-02T12:51:40;2.53;;;0.60;;
5465;SDS011;2755;50.728;7.108;2022-08-02T12:54:13;2.53;;;1.00;;
5465;SDS011;2755;50.728;7.108;2022-08-02T12:56:41;5.70;;;1.07;;
5465;SDS011;2755;50.728;7.108;2022-08-02T12:59:06;2.83;;;1.00;;
5465;SDS011;2755;50.728;7.108;2022-08-02T13:01:33;1.63;;;0.70;;
5465;SDS011;2755;50.728;7.108;2022-08-02T13:03:58;1.00;;;0.63;;
5465;SDS011;2755;50.728;7.108;2022-08-02T13:06:24;2.50;;;0.83;;
5465;SDS011;2755;50.728;7.108;2022-08-02T13:08:51;3.80;;;0.73;;
5465;SDS011;2755;50.728;7.108;2022-08-02T13:11:21;1.37;;;0.90;;
5465;SDS011;2755;50.728;7.108;2022-08-02T13:13:47;1.87;;;0.90;;
5465;SDS011;2755;50.728;7.108;2022-08-02T13:16:13;1.37;;;1.00;;
5465;SDS011;2755;50.728;7.108;2022-08-02T13:18:39;1.60;;;1.13;;
5465;SDS011;2755;50.728;7.108;2022-08-02T13:21:05;1.97;;;1.07;;
5465;SDS011;2755;50.728;7.108;2022-08-02T13:23:32;1.13;;;0.93;;
5465;SDS011;2755;50.728;7.108;2022-08-02T13:26:00;1.50;;;1.20;;
5465;SDS011;2755;50.728;7.108;2022-08-02T13:28:26;3.10;;;1.00;;
5465;SDS011;2755;50.728;7.108;2022-08-02T13:30:52;1.90;;;0.80;;
5465;SDS011;2755;50.728;7.108;2022-08-02T13:33:18;1.20;;;0.73;;
5465;SDS011;2755;50.728;7.108;2022-08-02T13:35:43;2.53;;;1.10;;
5465;SDS011;2755;50.728;7.108;2022-08-02T13:38:10;1.00;;;0.90;;
5465;SDS011;2755;50.728;7.108;2022-08-02T13:40:36;2.00;;;0.90;;
5465;SDS011;2755;50.728;7.108;2022-08-02T13:43:20;4.10;;;0.90;;
5465;SDS011;2755;50.728;7.108;2022-08-02T13:45:46;1.40;;;1.20;;
5465;SDS011;2755;50.728;7.108;2022-08-02T13:48:12;2.17;;;1.03;;
5465;SDS011;2755;50.728;7.108;2022-08-02T13:50:38;1.40;;;1.00;;
5465;SDS011;2755;50.728;7.108;2022-08-02T13:53:03;2.50;;;1.13;;
5465;SDS011;2755;50.728;7.108;2022-08-02T13:55:29;2.90;;;1.00;;
5465;SDS011;2755;50.728;7.108;2022-08-02T13:57:56;1.23;;;0.97;;
5465;SDS011;2755;50.728;7.108;2022-08-02T14:00:21;1.53;;;1.00;;
5465;SDS011;2755;50.728;7.108;2022-08-02T14:02:47;1.17;;;0.93;;
5465;SDS011;2755;50.728;7.108;2022-08-02T14:05:13;1.40;;;0.90;;
5465;SDS011;2755;50.728;7.108;2022-08-02T14:07:39;1.57;;;0.83;;
5465;SDS011;2755;50.728;7.108;2022-08-02T14:10:04;0.80;;;0.73;;
5465;SDS011;2755;50.728;7.108;2022-08-02T14:12:31;1.43;;;0.70;;
5465;SDS011;2755;50.728;7.108;2022-08-02T14:14:56;3.27;;;1.43;;
5465;SDS011;2755;50.728;7.108;2022-08-02T14:17:22;2.30;;;1.10;;
5465;SDS011;2755;50.728;7.108;2022-08-02T14:19:47;1.20;;;1.00;;
5465;SDS011;2755;50.728;7.108;2022-08-02T14:22:14;1.20;;;1.10;;
5465;SDS011;2755;50.728;7.108;2022-08-02T14:24:40;1.40;;;1.00;;
5465;SDS011;2755;50.728;7.108;2022-08-02T14:27:06;1.50;;;1.20;;
5465;SDS011;2755;50.728;7.108;2022-08-02T14:29:32;1.67;;;0.80;;
5465;SDS011;2755;50.728;7.108;2022-08-02T14:31:58;1.10;;;0.90;;
5465;SDS011;2755;50.728;7.108;2022-08-02T14:34:24;2.60;;;1.27;;
5465;SDS011;2755;50.728;7.108;2022-08-02T14:36:49;1.53;;;0.93;;
5465;SDS011;2755;50.728;7.108;2022-08-02T14:39:15;1.33;;;0.97;;
5465;SDS011;2755;50.728;7.108;2022-08-02T14:41:42;2.80;;;0.90;;
5465;SDS011;2755;50.728;7.108;2022-08-02T14:44:08;1.63;;;1.13;;
5465;SDS011;2755;50.728;7.108;2022-08-02T14:46:35;1.63;;;1.10;;
5465;SDS011;2755;50.728;7.108;2022-08-02T14:49:04;2.07;;;1.10;;
5465;SDS011;2755;50.728;7.108;2022-08-02T14:51:32;3.20;;;1.17;;
5465;SDS011;2755;50.728;7.108;2022-08-02T14:53:59;4.03;;;1.13;;
5465;SDS011;2755;50.728;7.108;2022-08-02T14:56:26;2.80;;;1.20;;
5465;SDS011;2755;50.728;7.108;2022-08-02T14:58:52;1.30;;;0.80;;
5465;SDS011;2755;50.728;7.108;2022-08-02T15:01:18;1.33;;;1.10;;
5465;SDS011;2755;50.728;7.108;2022-08-02T15:03:44;1.10;;;0.87;;
5465;SDS011;2755;50.728;7.108;2022-08-02T15:06:09;2.03;;;1.10;;
5465;SDS011;2755;50.728;7.108;2022-08-02T15:08:35;1.30;;;0.90;;
5465;SDS011;2755;50.728;7.108;2022-08-02T15:11:02;2.13;;;1.20;;
5465;SDS011;2755;50.728;7.108;2022-08-02T15:13:28;1.33;;;1.13;;
5465;SDS011;2755;50.728;7.108;2022-08-02T15:15:54;1.80;;;1.00;;
5465;SDS011;2755;50.728;7.108;2022-08-02T15:18:19;1.20;;;0.97;;
5465;SDS011;2755;50.728;7.108;2022-08-02T15:20:45;1.60;;;1.10;;
5465;SDS011;2755;50.728;7.108;2022-08-02T15:23:14;1.33;;;1.07;;
5465;SDS011;2755;50.728;7.108;2022-08-02T15:25:40;1.33;;;1.23;;
5465;SDS011;2755;50.728;7.108;2022-08-02T15:28:06;1.10;;;0.97;;
5465;SDS011;2755;50.728;7.108;2022-08-02T15:30:32;1.70;;;1.20;;
5465;SDS011;2755;50.728;7.108;2022-08-02T15:32:59;2.60;;;1.30;;
5465;SDS011;2755;50.728;7.108;2022-08-02T15:35:24;2.00;;;1.30;;
5465;SDS011;2755;50.728;7.108;2022-08-02T15:37:50;1.33;;;1.23;;
5465;SDS011;2755;50.728;7.108;2022-08-02T15:40:16;3.83;;;1.10;;
5465;SDS011;2755;50.728;7.108;2022-08-02T15:42:41;3.13;;;1.10;;
5465;SDS011;2755;50.728;7.108;2022-08-02T15:45:10;1.30;;;1.10;;
5465;SDS011;2755;50.728;7.108;2022-08-02T15:47:36;1.60;;;1.03;;
5465;SDS011;2755;50.728;7.108;2022-08-02T15:50:02;1.47;;;1.23;;
5465;SDS011;2755;50.728;7.108;2022-08-02T15:52:27;1.40;;;1.07;;
5465;SDS011;2755;50.728;7.108;2022-08-02T15:54:54;1.43;;;1.30;;
5465;SDS011;2755;50.728;7.108;2022-08-02T15:57:20;1.40;;;1.30;;
5465;SDS011;2755;50.728;7.108;2022-08-02T15:59:46;1.23;;;1.13;;
5465;SDS011;2755;50.728;7.108;2022-08-02T16:02:12;2.13;;;1.43;;